createdAt,value
2022-11-29T00:01:36.433Z,96706.53
2022-11-29T00:04:09.304Z,96707.47
2022-11-29T00:06:41.945Z,96710.34
2022-11-29T00:09:14.758Z,96702.25
2022-11-29T00:11:47.388Z,96706.25
2022-11-29T00:14:20.932Z,96702.78
2022-11-29T00:16:58.350Z,96701.13
2022-11-29T00:19:32.966Z,96698.38
2022-11-29T00:22:05.659Z,96692.31
2022-11-29T00:24:38.254Z,96686.28
2022-11-29T00:27:10.845Z,96686.06
2022-11-29T00:29:43.761Z,96688.09
2022-11-29T00:32:16.361Z,96687.06
2022-11-29T00:34:49.008Z,96690.22
2022-11-29T00:37:21.718Z,96687.78
2022-11-29T00:39:54.331Z,96684.16
2022-11-29T00:42:26.927Z,96678.78
2022-11-29T00:44:59.503Z,96685.78
2022-11-29T00:47:32.125Z,96689.56
2022-11-29T00:50:05.901Z,96674.91
2022-11-29T00:52:38.501Z,96684.47
2022-11-29T00:55:11.297Z,96686.47
2022-11-29T00:57:43.900Z,96687.38
2022-11-29T01:00:17.085Z,96692.13
2022-11-29T01:02:49.758Z,96678.91
2022-11-29T01:05:22.415Z,96683.47
2022-11-29T01:07:55.092Z,96678.16
2022-11-29T01:10:27.773Z,96683.25
2022-11-29T01:13:00.374Z,96683.03
2022-11-29T01:15:33.578Z,96685.06
2022-11-29T01:18:06.211Z,96683.84
2022-11-29T01:20:38.789Z,96686.28
2022-11-29T01:23:11.365Z,96686.06
2022-11-29T01:25:43.937Z,96685.69
2022-11-29T01:31:11.358Z,96689.50
2022-11-29T01:33:44.065Z,96687.78
2022-11-29T01:36:16.641Z,96682.84
2022-11-29T01:38:49.535Z,96685.19
2022-11-29T01:41:25.413Z,96683.03
2022-11-29T01:44:05.564Z,96682.44
2022-11-29T01:46:41.413Z,96674.53
2022-11-29T01:49:27.484Z,96673.47
2022-11-29T01:52:08.242Z,96674.94
2022-11-29T01:54:50.775Z,96682.50
2022-11-29T02:00:18.517Z,96665.09
2022-11-29T02:03:01.398Z,96670.03
2022-11-29T02:05:34.356Z,96661.28
2022-11-29T02:08:11.190Z,96662.72
2022-11-29T02:11:06.572Z,96659.50
2022-11-29T02:14:03.560Z,96658.69
2022-11-29T02:16:58.545Z,96661.19
2022-11-29T02:19:43.421Z,96660.91
2022-11-29T02:22:32.841Z,96663.88
2022-11-29T02:25:24.274Z,96658.75
2022-11-29T02:28:12.212Z,96662.88
2022-11-29T02:30:51.064Z,96656.03
2022-11-29T02:33:54.791Z,96656.59
2022-11-29T02:36:30.427Z,96665.19
2022-11-29T02:39:44.812Z,96662.88
2022-11-29T02:42:36.091Z,96658.53
2022-11-29T02:45:36.229Z,96667.97
2022-11-29T02:48:21.004Z,96666.59
2022-11-29T02:51:01.918Z,96666.69
2022-11-29T02:54:03.781Z,96664.59
2022-11-29T02:57:10.432Z,96671.78
2022-11-29T02:59:52.106Z,96665.59
2022-11-29T03:02:52.877Z,96667.97
2022-11-29T03:05:43.422Z,96661.25
2022-11-29T03:09:03.831Z,96669.75
2022-11-29T03:11:52.953Z,96665.34
2022-11-29T03:15:06.415Z,96663.97
2022-11-29T03:18:00.574Z,96661.16
2022-11-29T03:20:55.412Z,96662.50
2022-11-29T03:23:40.052Z,96658.59
2022-11-29T03:26:32.649Z,96665.13
2022-11-29T03:29:16.224Z,96663.91
2022-11-29T03:32:01.968Z,96664.78
2022-11-29T03:34:37.519Z,96660.56
2022-11-29T03:37:23.487Z,96660.44
2022-11-29T03:40:11.045Z,96660.69
2022-11-29T03:42:54.558Z,96662.88
2022-11-29T03:45:41.439Z,96654.81
2022-11-29T03:48:27.780Z,96665.47
2022-11-29T03:51:21.942Z,96663.75
2022-11-29T03:54:01.852Z,96666.69
2022-11-29T03:56:40.245Z,96658.84
2022-11-29T03:59:25.149Z,96664.75
2022-11-29T04:02:16.597Z,96669.22
2022-11-29T04:05:26.916Z,96670.03
2022-11-29T04:08:05.440Z,96676.72
2022-11-29T04:10:59.320Z,96671.03
2022-11-29T04:13:59.455Z,96671.56
2022-11-29T04:16:38.141Z,96679.03
2022-11-29T04:19:32.116Z,96678.47
2022-11-29T04:22:13.781Z,96673.69
2022-11-29T04:25:05.184Z,96678.09
2022-11-29T04:28:03.372Z,96680.06
2022-11-29T04:31:09.060Z,96682.31
2022-11-29T04:34:08.881Z,96690.53
2022-11-29T04:36:59.474Z,96683.06
2022-11-29T04:39:32.049Z,96689.44
2022-11-29T04:42:07.538Z,96688.19
2022-11-29T04:45:10.564Z,96686.63
2022-11-29T04:48:19.579Z,96688.50
2022-11-29T04:51:14.085Z,96684.91
2022-11-29T04:53:54.428Z,96688.94
2022-11-29T04:56:47.597Z,96687.84
2022-11-29T04:59:44.914Z,96695.19
2022-11-29T05:02:41.729Z,96687.44
2022-11-29T05:05:34.758Z,96693.88
2022-11-29T05:08:25.880Z,96692.47
2022-11-29T05:11:07.228Z,96698.31
2022-11-29T05:13:56.075Z,96693.53
2022-11-29T05:16:45.401Z,96701.72
2022-11-29T05:19:33.670Z,96701.44
2022-11-29T05:22:49.421Z,96709.38
2022-11-29T05:25:55.236Z,96708.34
2022-11-29T05:28:40.522Z,96709.38
2022-11-29T05:31:28.723Z,96703.28
2022-11-29T05:34:03.958Z,96710.41
2022-11-29T05:37:00.119Z,96713.50
2022-11-29T05:39:37.279Z,96715.59
2022-11-29T05:42:12.592Z,96715.94
2022-11-29T05:44:59.429Z,96717.59
2022-11-29T05:47:42.559Z,96719.41
2022-11-29T05:50:26.576Z,96723.25
2022-11-29T05:53:17.642Z,96728.31
2022-11-29T05:56:07.036Z,96726.59
2022-11-29T05:58:59.877Z,96726.22
2022-11-29T06:01:44.577Z,96720.09
2022-11-29T06:04:36.362Z,96728.66
2022-11-29T06:07:19.195Z,96724.38
2022-11-29T06:10:02.015Z,96726.63
2022-11-29T06:12:35.289Z,96726.56
2022-11-29T06:15:38.825Z,96732.88
2022-11-29T06:18:38.823Z,96734.50
2022-11-29T06:21:20.023Z,96731.22
2022-11-29T06:24:01.424Z,96734.56
2022-11-29T06:27:00.642Z,96735.50
2022-11-29T06:29:41.797Z,96743.34
2022-11-29T06:32:17.385Z,96737.88
2022-11-29T06:35:34.927Z,96745.63
2022-11-29T06:38:22.023Z,96745.19
2022-11-29T06:41:01.842Z,96748.28
2022-11-29T06:43:35.268Z,96751.25
2022-11-29T06:46:54.750Z,96758.44
2022-11-29T06:49:46.851Z,96762.09
2022-11-29T06:52:22.403Z,96760.47
2022-11-29T06:55:27.284Z,96763.38
2022-11-29T06:58:30.267Z,96762.94
2022-11-29T07:01:28.470Z,96763.31
2022-11-29T07:04:28.805Z,96768.03
2022-11-29T07:07:01.623Z,96772.50
2022-11-29T07:09:35.531Z,96774.13
2022-11-29T07:12:08.549Z,96777.69
2022-11-29T07:14:41.375Z,96775.88
2022-11-29T07:17:38.999Z,96782.53
2022-11-29T07:20:23.897Z,96784.88
2022-11-29T07:23:21.074Z,96775.72
2022-11-29T07:26:13.046Z,96782.88
2022-11-29T07:29:07.365Z,96781.75
2022-11-29T07:32:22.326Z,96774.94
2022-11-29T07:35:27.528Z,96779.13
2022-11-29T07:38:21.485Z,96782.59
2022-11-29T07:41:13.570Z,96783.59
2022-11-29T07:43:51.911Z,96780.59
2022-11-29T07:46:24.528Z,96788.09
2022-11-29T07:48:57.161Z,96788.47
2022-11-29T07:51:31.484Z,96787.25
2022-11-29T07:54:05.648Z,96780.84
2022-11-29T07:56:38.295Z,96786.84
2022-11-29T07:59:10.999Z,96791.38
2022-11-29T08:01:43.714Z,96790.19
2022-11-29T08:04:16.356Z,96798.97
2022-11-29T08:06:48.989Z,96787.56
2022-11-29T08:09:21.614Z,96789.34
2022-11-29T08:11:54.248Z,96790.56
2022-11-29T08:14:26.863Z,96798.63
2022-11-29T08:16:59.447Z,96799.59
2022-11-29T08:19:32.389Z,96797.06
2022-11-29T08:22:05.027Z,96797.19
2022-11-29T08:24:37.625Z,96795.31
2022-11-29T08:27:10.535Z,96799.91
2022-11-29T08:29:43.174Z,96805.34
2022-11-29T08:32:15.961Z,96799.69
2022-11-29T08:34:48.703Z,96809.72
2022-11-29T08:37:21.473Z,96804.13
2022-11-29T08:39:54.540Z,96803.38
2022-11-29T08:42:27.150Z,96811.38
2022-11-29T08:44:59.796Z,96813.91
2022-11-29T08:47:32.821Z,96819.72
2022-11-29T08:50:12.199Z,96821.47
2022-11-29T08:52:47.788Z,96819.88
2022-11-29T08:55:22.905Z,96829.44
2022-11-29T08:58:04.088Z,96827.88
2022-11-29T09:00:37.780Z,96829.41
2022-11-29T09:03:10.414Z,96826.69
2022-11-29T09:05:43.689Z,96832.47
2022-11-29T09:08:16.308Z,96836.91
2022-11-29T09:10:49.672Z,96835.34
2022-11-29T09:13:22.368Z,96832.25
2022-11-29T09:15:55.040Z,96841.50
2022-11-29T09:18:27.685Z,96835.88
2022-11-29T09:21:00.344Z,96837.84
2022-11-29T09:23:33.128Z,96839.44
2022-11-29T09:26:07.467Z,96834.84
2022-11-29T09:28:40.050Z,96833.84
2022-11-29T09:31:14.755Z,96832.28
2022-11-29T09:33:48.433Z,96837.06
2022-11-29T09:36:26.587Z,96831.16
2022-11-29T09:39:02.116Z,96842.91
2022-11-29T09:42:05.763Z,96846.31
2022-11-29T09:44:38.297Z,96844.47
2022-11-29T09:47:26.066Z,96835.09
2022-11-29T09:50:17.423Z,96841.63
2022-11-29T09:53:23.756Z,96839.81
2022-11-29T09:55:59.202Z,96834.63
2022-11-29T09:58:43.178Z,96842.28
2022-11-29T10:01:34.368Z,96837.22
2022-11-29T10:04:25.619Z,96836.38
2022-11-29T10:07:26.530Z,96836.53
2022-11-29T10:10:36.016Z,96837.06
2022-11-29T10:13:20.781Z,96828.88
2022-11-29T10:25:15.433Z,96830.84
2022-11-29T10:27:47.014Z,96836.88
2022-11-29T10:30:19.000Z,96835.19
2022-11-29T10:33:00.850Z,96831.47
2022-11-29T10:41:14.790Z,96837.03
2022-11-29T10:43:47.748Z,96831.72
2022-11-29T10:57:21.374Z,96835.66
2022-11-29T11:00:00.554Z,96826.06
2022-11-29T11:02:33.385Z,96819.72
2022-11-29T11:13:36.769Z,96820.78
2022-11-29T11:16:15.228Z,96824.44
2022-11-29T11:37:22.658Z,96808.84
2022-11-29T11:39:57.342Z,96814.16
2022-11-29T11:42:31.556Z,96813.03
2022-11-29T12:17:26.758Z,96823.00
2022-11-29T12:20:19.313Z,96821.09
2022-11-29T12:22:53.557Z,96823.81
2022-11-29T13:21:31.933Z,96821.88
2022-11-29T13:24:42.911Z,96817.31
2022-11-29T13:27:25.132Z,96811.53
2022-11-29T15:13:29.143Z,96837.63
2022-11-29T15:16:29.854Z,96836.75
2022-11-29T15:19:15.974Z,96833.19
2022-11-29T15:21:53.190Z,96840.28
2022-11-29T15:24:28.800Z,96844.16
2022-11-29T15:27:03.116Z,96840.47
2022-11-29T15:29:34.714Z,96841.22
2022-11-29T15:32:06.735Z,96847.53
2022-11-29T15:34:42.364Z,96847.94
2022-11-29T15:37:32.210Z,96856.34
2022-11-29T15:40:10.230Z,96851.66
2022-11-29T15:42:49.350Z,96850.78
2022-11-29T15:45:31.549Z,96848.25
2022-11-29T15:48:12.238Z,96854.59
2022-11-29T15:51:02.960Z,96854.75
2022-11-29T15:53:44.806Z,96860.66
2022-11-29T15:56:22.448Z,96859.53
2022-11-29T15:59:03.933Z,96856.16
2022-11-29T16:01:38.977Z,96857.63
2022-11-29T16:04:19.846Z,96858.16
2022-11-29T16:06:51.789Z,96864.59
2022-11-29T16:09:36.208Z,96855.88
2022-11-29T16:12:16.917Z,96856.31
2022-11-29T16:14:56.684Z,96868.56
2022-11-29T16:17:31.601Z,96860.03
2022-11-29T16:20:14.870Z,96864.13
2022-11-29T16:22:46.466Z,96863.59
2022-11-29T16:25:19.737Z,96864.38
2022-11-29T16:27:53.879Z,96865.22
2022-11-29T16:30:30.847Z,96864.94
2022-11-29T16:33:02.454Z,96874.75
2022-11-29T16:35:34.217Z,96871.56
2022-11-29T16:38:06.079Z,96879.78
2022-11-29T16:40:37.631Z,96880.09
2022-11-29T16:43:22.197Z,96880.06
2022-11-29T16:46:27.559Z,96874.22
2022-11-29T16:49:02.108Z,96876.59
2022-11-29T16:51:43.850Z,96876.88
2022-11-29T16:54:20.678Z,96874.75
2022-11-29T16:56:55.838Z,96888.78
2022-11-29T16:59:28.467Z,96885.31
2022-11-29T17:02:00.272Z,96891.94
2022-11-29T17:04:31.880Z,96887.34
2022-11-29T17:07:07.401Z,96882.84
2022-11-29T17:09:39.412Z,96887.69
2022-11-29T17:12:13.409Z,96881.63
2022-11-29T17:14:45.443Z,96893.56
2022-11-29T17:17:18.671Z,96889.59
2022-11-29T17:19:50.256Z,96885.38
2022-11-29T17:22:21.969Z,96890.16
2022-11-29T17:24:53.894Z,96884.84
2022-11-29T17:27:25.757Z,96884.06
2022-11-29T17:29:57.382Z,96881.44
2022-11-29T17:32:29.008Z,96878.78
2022-11-29T17:35:00.537Z,96873.47
2022-11-29T17:37:32.178Z,96868.09
2022-11-29T17:40:04.237Z,96876.13
2022-11-29T17:42:35.841Z,96876.34
2022-11-29T17:45:07.967Z,96876.59
2022-11-29T17:47:39.494Z,96880.63
2022-11-29T17:50:11.548Z,96877.69
2022-11-29T17:52:43.433Z,96877.97
2022-11-29T17:55:18.064Z,96879.56
2022-11-29T17:57:52.103Z,96889.59
2022-11-29T18:00:23.807Z,96888.03
2022-11-29T18:02:55.376Z,96892.78
2022-11-29T18:05:30.175Z,96898.06
2022-11-29T18:08:05.933Z,96891.69
2022-11-29T18:10:37.450Z,96886.94
2022-11-29T18:13:08.950Z,96891.69
2022-11-29T18:15:40.499Z,96894.06
2022-11-29T18:18:12.146Z,96895.66
2022-11-29T18:20:43.684Z,96894.63
2022-11-29T18:23:15.222Z,96900.72
2022-11-29T18:25:58.550Z,96904.44
2022-11-29T18:28:33.189Z,96906.78
2022-11-29T18:31:16.336Z,96909.94
2022-11-29T18:33:50.748Z,96910.84
2022-11-29T18:36:26.153Z,96917.47
2022-11-29T18:39:00.498Z,96917.22
2022-11-29T18:41:32.116Z,96918.78
2022-11-29T18:44:07.131Z,96924.88
2022-11-29T18:46:41.482Z,96918.53
2022-11-29T18:49:16.516Z,96919.84
2022-11-29T18:51:49.808Z,96922.81
2022-11-29T18:54:21.408Z,96922.81
2022-11-29T18:56:52.959Z,96924.69
2022-11-29T18:59:24.538Z,96924.69
2022-11-29T19:01:56.193Z,96919.34
2022-11-29T19:04:27.827Z,96927.03
2022-11-29T19:06:59.374Z,96931.78
2022-11-29T19:09:30.987Z,96933.97
2022-11-29T19:12:02.505Z,96931.84
2022-11-29T19:14:34.062Z,96931.06
2022-11-29T19:17:05.615Z,96935.53
2022-11-29T19:19:37.107Z,96926.03
2022-11-29T19:22:08.689Z,96931.56
2022-11-29T19:24:40.192Z,96932.91
2022-11-29T19:27:11.747Z,96936.84
2022-11-29T19:29:43.362Z,96929.41
2022-11-29T19:32:15.035Z,96936.84
2022-11-29T19:34:48.342Z,96933.69
2022-11-29T19:37:19.919Z,96927.34
2022-11-29T19:39:51.453Z,96937.16
2022-11-29T19:42:22.958Z,96937.41
2022-11-29T19:45:15.780Z,96937.38
2022-11-29T19:47:46.085Z,96929.88
2022-11-29T19:50:17.704Z,96937.06
2022-11-29T19:52:49.507Z,96932.03
2022-11-29T19:55:21.046Z,96933.25
2022-11-29T19:57:55.662Z,96937.81
2022-11-29T20:00:27.304Z,96933.31
2022-11-29T20:02:58.938Z,96934.91
2022-11-29T20:05:30.696Z,96937.03
2022-11-29T20:08:02.519Z,96936.88
2022-11-29T20:10:34.761Z,96939.78
2022-11-29T20:13:06.373Z,96940.44
2022-11-29T20:15:38.179Z,96928.41
2022-11-29T20:18:09.861Z,96924.28
2022-11-29T20:20:41.508Z,96929.06
2022-11-29T20:23:13.050Z,96927.13
2022-11-29T20:25:48.617Z,96927.31
2022-11-29T20:28:20.218Z,96929.78
2022-11-29T20:30:52.117Z,96936.28
2022-11-29T20:33:25.505Z,96928.84
2022-11-29T20:36:21.385Z,96933.59
2022-11-29T20:39:07.901Z,96933.00
2022-11-29T20:41:56.006Z,96933.97
2022-11-29T20:44:38.275Z,96932.69
2022-11-29T20:47:22.123Z,96935.34
2022-11-29T20:49:54.457Z,96935.63
2022-11-29T20:52:40.395Z,96940.69
2022-11-29T20:55:13.041Z,96936.22
2022-11-29T20:57:44.704Z,96938.38
2022-11-29T21:00:17.130Z,96933.88
2022-11-29T21:02:48.791Z,96938.59
2022-11-29T21:05:20.330Z,96933.88
2022-11-29T21:07:52.332Z,96935.75
2022-11-29T21:10:23.916Z,96934.69
2022-11-29T21:12:55.787Z,96937.66
2022-11-29T21:15:27.886Z,96934.50
2022-11-29T21:17:59.711Z,96935.03
2022-11-29T21:20:31.950Z,96932.34
2022-11-29T21:23:10.652Z,96932.06
2022-11-29T21:25:58.161Z,96930.50
2022-11-29T21:28:37.729Z,96937.38
2022-11-29T21:31:11.715Z,96930.47
2022-11-29T21:33:44.996Z,96931.25
2022-11-29T21:36:16.912Z,96934.97
2022-11-29T21:38:53.867Z,96940.56
2022-11-29T21:41:26.565Z,96941.13
2022-11-29T21:44:06.626Z,96938.72
2022-11-29T21:46:39.640Z,96945.13
2022-11-29T21:49:11.223Z,96942.22
2022-11-29T21:51:42.910Z,96939.81
2022-11-29T21:54:14.651Z,96935.28
2022-11-29T21:56:46.399Z,96941.41
2022-11-29T21:59:17.986Z,96936.09
2022-11-29T22:01:49.731Z,96948.81
2022-11-29T22:04:21.482Z,96939.00
2022-11-29T22:06:53.101Z,96937.44
2022-11-29T22:09:24.672Z,96940.38
2022-11-29T22:11:56.233Z,96935.31
2022-11-29T22:14:27.782Z,96928.13
2022-11-29T22:17:01.393Z,96934.78
2022-11-29T22:19:35.153Z,96939.50
2022-11-29T22:22:07.238Z,96941.13
2022-11-29T22:24:38.766Z,96934.50
2022-11-29T22:27:10.281Z,96933.16
2022-11-29T22:29:41.798Z,96932.63
2022-11-29T22:32:13.432Z,96931.84
2022-11-29T22:34:45.119Z,96925.75
2022-11-29T22:37:17.086Z,96932.38
2022-11-29T22:39:48.671Z,96944.06
2022-11-29T22:42:20.345Z,96932.41
2022-11-29T22:44:51.908Z,96930.00
2022-11-29T22:47:23.497Z,96933.94
2022-11-29T22:49:55.108Z,96934.72
2022-11-29T22:52:27.137Z,96945.59
2022-11-29T22:55:04.293Z,96947.47
2022-11-29T22:57:36.532Z,96952.25
2022-11-29T23:00:08.795Z,96942.47
2022-11-29T23:02:40.326Z,96944.03
2022-11-29T23:05:11.861Z,96941.66
2022-11-29T23:07:43.462Z,96949.63
2022-11-29T23:10:15.645Z,96949.34
2022-11-29T23:12:47.152Z,96940.88
2022-11-29T23:15:18.942Z,96945.63
2022-11-29T23:17:50.506Z,96941.38
2022-11-29T23:20:22.161Z,96936.91
2022-11-29T23:22:54.372Z,96938.50
2022-11-29T23:25:25.903Z,96938.22
2022-11-29T23:27:57.466Z,96937.97
2022-11-29T23:30:28.940Z,96929.75
2022-11-29T23:33:00.468Z,96928.41
2022-11-29T23:35:32.045Z,96938.75
2022-11-29T23:38:04.117Z,96942.72
2022-11-29T23:40:35.661Z,96940.09
2022-11-29T23:43:07.310Z,96945.16
2022-11-29T23:45:39.575Z,96947.25
2022-11-29T23:48:11.120Z,96953.88
2022-11-29T23:50:43.333Z,96942.47
2022-11-29T23:53:17.585Z,96949.13
2022-11-29T23:56:13.348Z,96945.91
2022-11-29T23:58:45.658Z,96947.00
